createdAt,value
2019-05-25T00:02:26.527Z,90.47
2019-05-25T00:06:28.555Z,90.50
2019-05-25T00:10:30.634Z,90.58
2019-05-25T00:14:32.907Z,90.63
2019-05-25T00:18:35.126Z,90.56
2019-05-25T00:22:37.232Z,90.55
2019-05-25T00:26:39.302Z,90.65
2019-05-25T00:30:41.404Z,90.58
2019-05-25T00:34:43.457Z,90.61
2019-05-25T00:38:45.529Z,90.55
2019-05-25T00:42:47.626Z,90.59
2019-05-25T00:46:50.681Z,90.43
2019-05-25T00:50:54.033Z,90.54
2019-05-25T00:54:56.340Z,90.37
2019-05-25T00:58:58.596Z,90.45
2019-05-25T01:03:00.591Z,90.44
2019-05-25T01:07:02.738Z,90.49
2019-05-25T01:11:05.044Z,90.45
2019-05-25T01:15:08.500Z,90.41
2019-05-25T01:19:10.632Z,90.44
2019-05-25T01:23:12.774Z,90.47
2019-05-25T01:27:14.888Z,90.51
2019-05-25T01:31:17.036Z,90.64
2019-05-25T01:35:19.026Z,90.61
2019-05-25T01:39:21.070Z,90.49
2019-05-25T01:43:23.191Z,90.45
2019-05-25T01:47:25.226Z,90.33
2019-05-25T01:51:27.525Z,90.45
2019-05-25T01:55:29.875Z,90.62
2019-05-25T01:59:32.041Z,90.56
2019-05-25T02:03:34.087Z,90.64
2019-05-25T02:07:36.472Z,90.69
2019-05-25T02:11:39.757Z,90.59
2019-05-25T02:15:41.772Z,90.57
2019-05-25T02:19:43.902Z,90.60
2019-05-25T02:23:45.932Z,90.66
2019-05-25T02:27:48.143Z,90.63
2019-05-25T02:31:50.359Z,90.79
2019-05-25T02:35:52.699Z,90.93
2019-05-25T02:39:55.971Z,90.82
2019-05-25T02:43:58.203Z,90.87
2019-05-25T02:48:01.363Z,91.09
2019-05-25T02:52:03.784Z,90.95
2019-05-25T02:56:06.117Z,90.88
2019-05-25T03:00:08.563Z,90.87
2019-05-25T03:04:10.713Z,90.90
2019-05-25T03:08:12.894Z,90.99
2019-05-25T03:12:15.411Z,90.94
2019-05-25T03:16:18.400Z,90.83
2019-05-25T03:20:20.612Z,90.80
2019-05-25T03:24:22.763Z,90.52
2019-05-25T03:28:25.076Z,90.64
2019-05-25T03:32:27.302Z,90.75
2019-05-25T03:36:29.462Z,90.96
2019-05-25T03:40:31.636Z,90.89
2019-05-25T03:44:33.766Z,91.03
2019-05-25T03:48:36.043Z,91.11
2019-05-25T03:52:39.355Z,91.23
2019-05-25T03:56:41.517Z,91.14
2019-05-25T04:00:43.817Z,90.99
2019-05-25T04:04:45.797Z,91.21
2019-05-25T04:08:47.974Z,91.22
2019-05-25T04:12:50.039Z,91.45
2019-05-25T04:16:52.252Z,91.48
2019-05-25T04:20:54.501Z,91.66
2019-05-25T04:24:56.539Z,91.69
2019-05-25T04:28:58.551Z,91.75
2019-05-25T04:33:00.643Z,91.72
2019-05-25T04:37:02.817Z,91.84
2019-05-25T04:41:05.137Z,91.90
2019-05-25T04:45:09.161Z,91.98
2019-05-25T04:49:11.328Z,91.94
2019-05-25T04:53:14.454Z,91.96
2019-05-25T04:57:16.985Z,92.05
2019-05-25T05:01:22.423Z,92.00
2019-05-25T05:05:23.341Z,92.15
2019-05-25T05:09:25.353Z,92.25
2019-05-25T05:13:27.461Z,92.20
2019-05-25T05:17:29.482Z,92.13
2019-05-25T05:21:31.509Z,91.99
2019-05-25T05:25:33.542Z,92.01
2019-05-25T05:29:35.658Z,92.07
2019-05-25T05:33:37.901Z,92.22
2019-05-25T05:37:42.382Z,92.16
2019-05-25T05:41:46.730Z,92.20
2019-05-25T05:45:49.471Z,92.13
2019-05-25T05:49:53.571Z,92.00
2019-05-25T05:53:57.447Z,91.89
2019-05-25T05:57:59.913Z,91.68
2019-05-25T06:02:02.029Z,91.57
2019-05-25T06:06:04.335Z,91.53
2019-05-25T06:10:08.430Z,91.32
2019-05-25T06:14:10.563Z,91.20
2019-05-25T06:18:12.579Z,91.13
2019-05-25T06:22:14.836Z,91.32
2019-05-25T06:26:18.027Z,91.39
2019-05-25T06:30:20.391Z,91.30
2019-05-25T06:34:22.312Z,91.05
2019-05-25T06:38:24.516Z,90.52
2019-05-25T06:42:26.766Z,89.80
2019-05-25T06:46:28.898Z,89.56
2019-05-25T06:50:30.936Z,88.72
2019-05-25T06:54:33.285Z,88.55
2019-05-25T06:58:35.494Z,88.32
2019-05-25T07:02:37.711Z,88.76
2019-05-25T07:06:39.738Z,88.03
2019-05-25T07:10:42.045Z,86.31
2019-05-25T07:14:44.176Z,85.83
2019-05-25T07:18:46.436Z,84.76
2019-05-25T07:22:48.448Z,84.86
2019-05-25T07:26:51.507Z,84.98
2019-05-25T07:30:53.800Z,86.05
2019-05-25T07:34:56.280Z,85.88
2019-05-25T07:38:58.390Z,83.91
2019-05-25T07:43:00.438Z,84.42
2019-05-25T07:47:02.631Z,84.95
2019-05-25T07:51:04.775Z,82.87
2019-05-25T07:55:08.050Z,83.07
2019-05-25T07:59:10.187Z,82.49
2019-05-25T08:03:12.195Z,80.11
2019-05-25T08:07:14.216Z,80.51
2019-05-25T08:11:16.267Z,80.46
2019-05-25T08:15:19.365Z,78.16
2019-05-25T08:19:21.492Z,77.92
2019-05-25T08:23:23.539Z,78.58
2019-05-25T08:27:26.100Z,79.30
2019-05-25T08:31:28.328Z,78.70
2019-05-25T08:35:31.661Z,77.28
2019-05-25T08:39:33.904Z,77.25
2019-05-25T08:43:36.019Z,77.59
2019-05-25T08:47:38.371Z,76.56
2019-05-25T08:51:40.387Z,77.65
2019-05-25T08:55:42.738Z,76.81
2019-05-25T08:59:45.041Z,77.01
2019-05-25T09:03:47.378Z,72.85
2019-05-25T09:07:49.425Z,70.24
2019-05-25T09:11:51.658Z,73.52
2019-05-25T09:15:53.766Z,69.70
2019-05-25T09:19:55.936Z,68.66
2019-05-25T09:23:58.156Z,72.02
2019-05-25T09:28:00.832Z,73.57
2019-05-25T09:32:07.030Z,76.71
2019-05-25T09:36:10.225Z,78.01
2019-05-25T09:40:12.802Z,79.91
2019-05-25T09:44:14.896Z,78.81
2019-05-25T09:48:17.030Z,79.43
2019-05-25T09:52:19.180Z,79.40
2019-05-25T09:56:21.415Z,79.56
2019-05-25T10:00:24.656Z,76.89
2019-05-25T10:04:26.757Z,76.99
2019-05-25T10:08:28.944Z,73.96
2019-05-25T10:12:31.049Z,73.50
2019-05-25T10:16:34.771Z,70.43
2019-05-25T10:20:36.953Z,70.56
2019-05-25T10:24:40.015Z,72.23
2019-05-25T10:28:42.126Z,71.86
2019-05-25T10:32:44.261Z,66.35
2019-05-25T10:36:46.722Z,64.22
2019-05-25T10:40:48.731Z,64.69
2019-05-25T10:44:51.723Z,70.15
2019-05-25T10:48:53.879Z,67.60
2019-05-25T10:52:55.905Z,68.94
2019-05-25T10:56:57.918Z,71.22
2019-05-25T11:01:01.678Z,68.11
2019-05-25T11:05:03.643Z,66.48
2019-05-25T11:09:07.099Z,72.95
2019-05-25T11:13:09.116Z,75.84
2019-05-25T11:17:11.325Z,77.41
2019-05-25T11:21:13.463Z,77.07
2019-05-25T11:25:17.424Z,76.88
2019-05-25T11:29:19.580Z,78.76
2019-05-25T11:33:21.572Z,76.19
2019-05-25T11:37:23.896Z,78.09
2019-05-25T11:41:26.439Z,79.33
2019-05-25T11:45:28.501Z,82.18
2019-05-25T11:49:30.808Z,82.15
2019-05-25T11:53:32.648Z,80.87
2019-05-25T11:57:34.883Z,80.96
2019-05-25T12:01:36.895Z,78.36
2019-05-25T12:05:41.596Z,78.51
2019-05-25T12:09:43.729Z,79.86
2019-05-25T12:13:46.055Z,81.06
2019-05-25T12:17:48.280Z,80.60
2019-05-25T12:21:50.232Z,81.07
2019-05-25T12:25:52.533Z,82.19
2019-05-25T12:29:54.618Z,82.54
2019-05-25T12:33:56.661Z,83.75
2019-05-25T12:37:59.778Z,82.50
2019-05-25T12:42:02.148Z,83.29
2019-05-25T12:46:04.315Z,82.84
2019-05-25T12:50:07.257Z,82.84
2019-05-25T12:54:09.220Z,84.85
2019-05-25T12:58:11.323Z,85.02
2019-05-25T13:02:13.575Z,84.09
2019-05-25T13:06:18.243Z,83.87
2019-05-25T13:10:20.826Z,82.68
2019-05-25T13:14:22.880Z,83.26
2019-05-25T13:18:24.885Z,84.15
2019-05-25T13:22:27.032Z,85.08
2019-05-25T13:26:29.275Z,84.20
2019-05-25T13:30:31.666Z,80.66
2019-05-25T13:34:33.916Z,81.79
2019-05-25T13:38:36.014Z,80.43
2019-05-25T13:42:38.708Z,81.53
2019-05-25T13:46:40.801Z,80.67
2019-05-25T13:50:42.936Z,81.32
2019-05-25T13:54:45.173Z,80.63
2019-05-25T13:58:47.205Z,80.57
2019-05-25T14:02:49.992Z,79.39
2019-05-25T14:06:52.236Z,82.12
2019-05-25T14:10:54.542Z,80.68
2019-05-25T14:14:56.736Z,81.46
2019-05-25T14:18:58.782Z,82.07
2019-05-25T14:23:00.987Z,81.33
2019-05-25T14:27:03.175Z,81.58
2019-05-25T14:31:05.298Z,82.29
2019-05-25T14:35:07.580Z,82.81
2019-05-25T14:39:10.194Z,83.86
2019-05-25T14:43:12.437Z,84.07
2019-05-25T14:47:14.699Z,84.02
2019-05-25T14:51:16.979Z,84.66
2019-05-25T14:55:19.149Z,84.87
2019-05-25T14:59:21.391Z,85.50
2019-05-25T15:03:23.534Z,85.60
2019-05-25T15:07:25.523Z,85.92
2019-05-25T15:11:27.823Z,85.39
2019-05-25T15:15:30.269Z,85.43
2019-05-25T15:19:32.504Z,85.19
2019-05-25T15:23:34.682Z,84.88
2019-05-25T15:27:36.917Z,85.02
2019-05-25T15:31:39.207Z,84.54
2019-05-25T15:35:41.323Z,85.70
2019-05-25T15:39:43.483Z,85.45
2019-05-25T15:43:45.604Z,85.21
2019-05-25T15:47:47.737Z,85.88
2019-05-25T15:51:50.127Z,86.06
2019-05-25T15:55:52.162Z,85.90
2019-05-25T15:59:54.779Z,85.67
2019-05-25T16:03:56.964Z,86.08
2019-05-25T16:07:59.189Z,85.29
2019-05-25T16:12:01.339Z,83.86
2019-05-25T16:16:03.530Z,83.30
2019-05-25T16:20:06.199Z,84.14
2019-05-25T16:24:08.415Z,84.24
2019-05-25T16:28:11.669Z,83.99
2019-05-25T16:32:13.663Z,85.26
2019-05-25T16:36:16.218Z,85.17
2019-05-25T16:40:19.083Z,84.96
2019-05-25T16:44:21.320Z,85.23
2019-05-25T16:48:23.395Z,86.08
2019-05-25T16:52:25.349Z,85.54
2019-05-25T16:56:27.360Z,86.18
2019-05-25T17:00:29.904Z,86.43
2019-05-25T17:04:32.008Z,85.99
2019-05-25T17:08:34.096Z,86.33
2019-05-25T17:12:37.209Z,86.13
2019-05-25T17:16:39.264Z,85.89
2019-05-25T17:20:41.319Z,86.01
2019-05-25T17:24:43.601Z,86.38
2019-05-25T17:28:46.633Z,85.64
2019-05-25T17:32:50.213Z,85.85
2019-05-25T17:37:00.864Z,85.51
2019-05-25T17:41:07.486Z,85.28
2019-05-25T17:45:10.461Z,85.70
2019-05-25T17:49:14.352Z,85.98
2019-05-25T17:53:17.256Z,85.97
2019-05-25T17:57:19.702Z,86.42
2019-05-25T18:01:21.916Z,86.58
2019-05-25T18:05:24.536Z,86.83
2019-05-25T18:09:26.643Z,86.97
2019-05-25T18:13:29.951Z,87.11
2019-05-25T18:17:31.916Z,87.14
2019-05-25T18:21:33.989Z,87.55
2019-05-25T18:25:36.202Z,87.27
2019-05-25T18:29:38.607Z,87.03
2019-05-25T18:33:41.187Z,86.96
2019-05-25T18:37:43.300Z,86.91
2019-05-25T18:41:45.413Z,87.11
2019-05-25T18:45:47.352Z,87.18
2019-05-25T18:49:49.463Z,87.45
2019-05-25T18:53:51.855Z,87.29
2019-05-25T18:57:55.234Z,86.85
2019-05-25T19:01:57.299Z,87.06
2019-05-25T19:05:59.811Z,86.87
2019-05-25T19:10:02.293Z,87.23
2019-05-25T19:14:10.370Z,87.08
2019-05-25T19:18:14.014Z,87.63
2019-05-25T19:22:20.579Z,88.07
2019-05-25T19:26:25.276Z,88.69
2019-05-25T19:30:28.220Z,89.19
2019-05-25T19:34:32.043Z,89.13
2019-05-25T19:38:34.056Z,89.50
2019-05-25T19:42:36.175Z,89.97
2019-05-25T19:46:38.297Z,89.95
2019-05-25T19:50:40.441Z,90.33
2019-05-25T19:54:42.481Z,90.37
2019-05-25T19:58:44.617Z,90.35
2019-05-25T20:02:46.740Z,90.68
2019-05-25T20:06:48.865Z,90.56
2019-05-25T20:10:50.960Z,90.92
2019-05-25T20:14:53.104Z,90.87
2019-05-25T20:18:56.324Z,91.21
2019-05-25T20:22:58.404Z,91.22
2019-05-25T20:27:01.695Z,91.12
2019-05-25T20:31:03.976Z,91.28
2019-05-25T20:35:06.602Z,91.31
2019-05-25T20:39:09.038Z,91.33
2019-05-25T20:43:11.379Z,91.51
2019-05-25T20:47:13.501Z,91.69
2019-05-25T20:51:15.729Z,91.39
2019-05-25T20:55:18.045Z,91.15
2019-05-25T20:59:20.092Z,91.18
2019-05-25T21:03:22.234Z,90.97
2019-05-25T21:07:24.282Z,91.26
2019-05-25T21:11:26.278Z,90.45
2019-05-25T21:15:28.417Z,90.74
2019-05-25T21:19:30.452Z,90.92
2019-05-25T21:23:32.648Z,90.71
2019-05-25T21:27:34.790Z,90.70
2019-05-25T21:31:37.006Z,90.97
2019-05-25T21:35:39.166Z,91.00
2019-05-25T21:39:41.345Z,90.85
2019-05-25T21:43:44.931Z,90.68
2019-05-25T21:47:47.067Z,91.05
2019-05-25T21:51:49.073Z,91.06
2019-05-25T21:55:51.202Z,90.83
2019-05-25T21:59:53.332Z,91.01
2019-05-25T22:03:55.605Z,90.92
2019-05-25T22:07:57.711Z,90.77
2019-05-25T22:11:59.801Z,90.70
2019-05-25T22:16:02.949Z,90.79
2019-05-25T22:20:05.418Z,90.87
2019-05-25T22:24:07.553Z,90.88
2019-05-25T22:28:09.836Z,91.06
2019-05-25T22:32:12.019Z,90.98
2019-05-25T22:36:14.206Z,91.01
2019-05-25T22:40:17.677Z,91.25
2019-05-25T22:44:19.907Z,90.95
2019-05-25T22:48:22.054Z,90.99
2019-05-25T22:52:24.144Z,90.89
2019-05-25T22:56:26.218Z,90.99
2019-05-25T23:00:28.655Z,90.95
2019-05-25T23:04:30.741Z,91.04
2019-05-25T23:08:32.889Z,90.68
2019-05-25T23:12:35.025Z,91.05
2019-05-25T23:16:37.124Z,90.88
2019-05-25T23:20:39.349Z,90.59
2019-05-25T23:24:42.675Z,90.96
2019-05-25T23:28:44.776Z,90.44
2019-05-25T23:32:46.756Z,90.62
2019-05-25T23:36:48.809Z,90.91
2019-05-25T23:40:50.969Z,90.73
2019-05-25T23:44:53.070Z,90.74
2019-05-25T23:48:55.108Z,90.78
2019-05-25T23:52:57.173Z,90.86
2019-05-25T23:56:59.264Z,91.21
